sensor_id;sensor_type;location;lat;lon;timestamp;temperature;humidity
51855;DHT22;37895;53.240;6.572;2023-05-10T00:00:14;14.20;99.90
51855;DHT22;37895;53.240;6.572;2023-05-10T00:02:40;14.20;99.90
51855;DHT22;37895;53.240;6.572;2023-05-10T00:05:06;14.10;99.90
51855;DHT22;37895;53.240;6.572;2023-05-10T00:07:32;14.10;99.90
51855;DHT22;37895;53.240;6.572;2023-05-10T00:09:57;14.00;99.90
51855;DHT22;37895;53.240;6.572;2023-05-10T00:12:23;14.10;99.90
51855;DHT22;37895;53.240;6.572;2023-05-10T00:14:48;14.00;99.90
51855;DHT22;37895;53.240;6.572;2023-05-10T00:17:14;14.00;99.90
51855;DHT22;37895;53.240;6.572;2023-05-10T00:19:40;14.00;99.90
51855;DHT22;37895;53.240;6.572;2023-05-10T00:22:05;14.00;99.90
51855;DHT22;37895;53.240;6.572;2023-05-10T00:24:31;13.90;99.90
51855;DHT22;37895;53.240;6.572;2023-05-10T00:26:57;13.80;99.90
51855;DHT22;37895;53.240;6.572;2023-05-10T00:29:22;13.80;99.90
51855;DHT22;37895;53.240;6.572;2023-05-10T00:31:48;13.80;99.90
51855;DHT22;37895;53.240;6.572;2023-05-10T00:34:13;13.80;99.90
51855;DHT22;37895;53.240;6.572;2023-05-10T00:36:39;13.70;99.90
51855;DHT22;37895;53.240;6.572;2023-05-10T00:39:05;13.80;99.90
51855;DHT22;37895;53.240;6.572;2023-05-10T00:41:31;13.80;99.90
51855;DHT22;37895;53.240;6.572;2023-05-10T00:43:59;13.70;99.90
51855;DHT22;37895;53.240;6.572;2023-05-10T00:46:26;13.70;99.90
51855;DHT22;37895;53.240;6.572;2023-05-10T00:48:52;13.70;99.90
51855;DHT22;37895;53.240;6.572;2023-05-10T00:51:18;13.70;99.90
51855;DHT22;37895;53.240;6.572;2023-05-10T00:53:45;13.60;99.90
51855;DHT22;37895;53.240;6.572;2023-05-10T00:56:11;13.60;99.90
51855;DHT22;37895;53.240;6.572;2023-05-10T00:58:37;13.50;99.90
51855;DHT22;37895;53.240;6.572;2023-05-10T01:01:04;13.50;99.90
51855;DHT22;37895;53.240;6.572;2023-05-10T01:03:32;13.50;99.90
51855;DHT22;37895;53.240;6.572;2023-05-10T01:05:57;13.50;99.90
51855;DHT22;37895;53.240;6.572;2023-05-10T01:08:24;13.50;99.90
51855;DHT22;37895;53.240;6.572;2023-05-10T01:10:50;13.50;99.90
51855;DHT22;37895;53.240;6.572;2023-05-10T01:15:52;13.50;99.90
51855;DHT22;37895;53.240;6.572;2023-05-10T01:18:20;13.40;99.90
51855;DHT22;37895;53.240;6.572;2023-05-10T01:20:51;13.30;99.90
51855;DHT22;37895;53.240;6.572;2023-05-10T01:24:09;13.30;99.90
51855;DHT22;37895;53.240;6.572;2023-05-10T01:34:12;13.30;99.90
51855;DHT22;37895;53.240;6.572;2023-05-10T01:39:45;13.30;99.90
51855;DHT22;37895;53.240;6.572;2023-05-10T01:42:22;13.30;99.90
51855;DHT22;37895;53.240;6.572;2023-05-10T01:48:11;13.30;99.90
51855;DHT22;37895;53.240;6.572;2023-05-10T01:50:41;13.30;99.90
51855;DHT22;37895;53.240;6.572;2023-05-10T01:53:09;13.20;99.90
51855;DHT22;37895;53.240;6.572;2023-05-10T01:55:43;13.30;99.90
51855;DHT22;37895;53.240;6.572;2023-05-10T01:58:14;13.20;99.90
51855;DHT22;37895;53.240;6.572;2023-05-10T02:00:44;13.20;99.90
51855;DHT22;37895;53.240;6.572;2023-05-10T02:03:11;13.20;99.90
51855;DHT22;37895;53.240;6.572;2023-05-10T02:05:38;13.10;99.90
51855;DHT22;37895;53.240;6.572;2023-05-10T02:08:06;13.10;99.90
51855;DHT22;37895;53.240;6.572;2023-05-10T02:10:35;13.10;99.90
51855;DHT22;37895;53.240;6.572;2023-05-10T02:13:02;13.20;99.90
51855;DHT22;37895;53.240;6.572;2023-05-10T02:15:29;13.20;99.90
51855;DHT22;37895;53.240;6.572;2023-05-10T02:17:55;13.20;99.90
51855;DHT22;37895;53.240;6.572;2023-05-10T02:20:23;13.20;99.90
51855;DHT22;37895;53.240;6.572;2023-05-10T02:22:52;13.20;99.90
51855;DHT22;37895;53.240;6.572;2023-05-10T02:25:20;13.10;99.90
51855;DHT22;37895;53.240;6.572;2023-05-10T02:27:47;13.10;99.90
51855;DHT22;37895;53.240;6.572;2023-05-10T02:30:14;13.10;99.90
51855;DHT22;37895;53.240;6.572;2023-05-10T02:32:41;13.10;99.90
51855;DHT22;37895;53.240;6.572;2023-05-10T02:35:08;13.10;99.90
51855;DHT22;37895;53.240;6.572;2023-05-10T02:37:36;13.00;99.90
51855;DHT22;37895;53.240;6.572;2023-05-10T02:40:04;13.00;99.90
51855;DHT22;37895;53.240;6.572;2023-05-10T02:42:33;13.00;99.90
51855;DHT22;37895;53.240;6.572;2023-05-10T02:45:01;13.00;99.90
51855;DHT22;37895;53.240;6.572;2023-05-10T02:47:29;13.00;99.90
51855;DHT22;37895;53.240;6.572;2023-05-10T02:49:55;13.00;99.90
51855;DHT22;37895;53.240;6.572;2023-05-10T02:52:24;13.00;99.90
51855;DHT22;37895;53.240;6.572;2023-05-10T02:54:55;13.00;99.90
51855;DHT22;37895;53.240;6.572;2023-05-10T02:57:27;13.00;99.90
51855;DHT22;37895;53.240;6.572;2023-05-10T02:59:54;13.00;99.90
51855;DHT22;37895;53.240;6.572;2023-05-10T03:02:20;13.00;99.90
51855;DHT22;37895;53.240;6.572;2023-05-10T03:04:46;13.00;99.90
51855;DHT22;37895;53.240;6.572;2023-05-10T03:07:12;13.00;99.90
51855;DHT22;37895;53.240;6.572;2023-05-10T03:09:38;13.00;99.90
51855;DHT22;37895;53.240;6.572;2023-05-10T03:12:11;13.00;99.90
51855;DHT22;37895;53.240;6.572;2023-05-10T03:17:52;13.00;99.90
51855;DHT22;37895;53.240;6.572;2023-05-10T03:20:34;12.90;99.90
51855;DHT22;37895;53.240;6.572;2023-05-10T03:23:21;13.00;99.90
51855;DHT22;37895;53.240;6.572;2023-05-10T03:25:48;12.90;99.90
51855;DHT22;37895;53.240;6.572;2023-05-10T03:28:16;12.90;99.90
51855;DHT22;37895;53.240;6.572;2023-05-10T03:30:43;12.90;99.90
51855;DHT22;37895;53.240;6.572;2023-05-10T03:33:09;12.90;99.90
51855;DHT22;37895;53.240;6.572;2023-05-10T03:35:35;12.90;99.90
51855;DHT22;37895;53.240;6.572;2023-05-10T03:38:00;13.00;99.90
51855;DHT22;37895;53.240;6.572;2023-05-10T03:40:27;13.00;99.90
51855;DHT22;37895;53.240;6.572;2023-05-10T03:42:58;13.00;99.90
51855;DHT22;37895;53.240;6.572;2023-05-10T03:45:23;12.90;99.90
51855;DHT22;37895;53.240;6.572;2023-05-10T03:47:49;12.90;99.90
51855;DHT22;37895;53.240;6.572;2023-05-10T03:50:14;12.90;99.90
51855;DHT22;37895;53.240;6.572;2023-05-10T03:52:40;12.90;99.90
51855;DHT22;37895;53.240;6.572;2023-05-10T03:55:06;12.90;99.90
51855;DHT22;37895;53.240;6.572;2023-05-10T03:57:33;12.90;99.90
51855;DHT22;37895;53.240;6.572;2023-05-10T03:59:59;12.90;99.90
51855;DHT22;37895;53.240;6.572;2023-05-10T04:02:25;12.90;99.90
51855;DHT22;37895;53.240;6.572;2023-05-10T04:04:50;12.90;99.90
51855;DHT22;37895;53.240;6.572;2023-05-10T04:07:16;12.90;99.90
51855;DHT22;37895;53.240;6.572;2023-05-10T04:09:42;12.90;99.90
51855;DHT22;37895;53.240;6.572;2023-05-10T04:12:08;12.90;99.90
51855;DHT22;37895;53.240;6.572;2023-05-10T04:14:33;12.80;99.90
51855;DHT22;37895;53.240;6.572;2023-05-10T04:16:59;12.80;99.90
51855;DHT22;37895;53.240;6.572;2023-05-10T04:19:32;12.80;99.90
51855;DHT22;37895;53.240;6.572;2023-05-10T04:21:58;12.90;99.90
51855;DHT22;37895;53.240;6.572;2023-05-10T04:24:24;12.80;99.90
51855;DHT22;37895;53.240;6.572;2023-05-10T04:26:49;12.80;99.90
51855;DHT22;37895;53.240;6.572;2023-05-10T04:29:15;12.80;99.90
51855;DHT22;37895;53.240;6.572;2023-05-10T04:31:40;12.80;99.90
51855;DHT22;37895;53.240;6.572;2023-05-10T04:34:06;12.70;99.90
51855;DHT22;37895;53.240;6.572;2023-05-10T04:36:32;12.80;99.90
51855;DHT22;37895;53.240;6.572;2023-05-10T04:38:59;12.70;99.90
51855;DHT22;37895;53.240;6.572;2023-05-10T04:41:25;12.70;99.90
51855;DHT22;37895;53.240;6.572;2023-05-10T04:43:51;12.70;99.90
51855;DHT22;37895;53.240;6.572;2023-05-10T04:46:17;12.60;99.90
51855;DHT22;37895;53.240;6.572;2023-05-10T04:48:42;12.70;99.90
51855;DHT22;37895;53.240;6.572;2023-05-10T04:51:09;12.60;99.90
51855;DHT22;37895;53.240;6.572;2023-05-10T04:53:34;12.60;99.90
51855;DHT22;37895;53.240;6.572;2023-05-10T04:56:00;12.70;99.90
51855;DHT22;37895;53.240;6.572;2023-05-10T04:58:26;12.60;99.90
51855;DHT22;37895;53.240;6.572;2023-05-10T05:00:51;12.60;99.90
51855;DHT22;37895;53.240;6.572;2023-05-10T05:03:17;12.70;99.90
51855;DHT22;37895;53.240;6.572;2023-05-10T05:05:43;12.60;99.90
51855;DHT22;37895;53.240;6.572;2023-05-10T05:08:09;12.70;99.90
51855;DHT22;37895;53.240;6.572;2023-05-10T05:10:35;12.70;99.90
51855;DHT22;37895;53.240;6.572;2023-05-10T05:13:01;12.70;99.90
51855;DHT22;37895;53.240;6.572;2023-05-10T05:15:26;12.60;99.90
51855;DHT22;37895;53.240;6.572;2023-05-10T05:17:52;12.70;99.90
51855;DHT22;37895;53.240;6.572;2023-05-10T05:20:18;12.70;99.90
51855;DHT22;37895;53.240;6.572;2023-05-10T05:22:44;12.80;99.90
51855;DHT22;37895;53.240;6.572;2023-05-10T05:25:10;12.70;99.90
51855;DHT22;37895;53.240;6.572;2023-05-10T05:27:37;12.80;99.90
51855;DHT22;37895;53.240;6.572;2023-05-10T05:30:03;12.80;99.90
51855;DHT22;37895;53.240;6.572;2023-05-10T05:32:29;12.80;99.90
51855;DHT22;37895;53.240;6.572;2023-05-10T05:34:55;12.80;99.90
51855;DHT22;37895;53.240;6.572;2023-05-10T05:37:21;12.80;99.90
51855;DHT22;37895;53.240;6.572;2023-05-10T05:39:48;12.80;99.90
51855;DHT22;37895;53.240;6.572;2023-05-10T05:42:14;12.80;99.90
51855;DHT22;37895;53.240;6.572;2023-05-10T05:44:41;12.80;99.90
51855;DHT22;37895;53.240;6.572;2023-05-10T05:47:07;12.80;99.90
51855;DHT22;37895;53.240;6.572;2023-05-10T05:49:33;12.80;99.90
51855;DHT22;37895;53.240;6.572;2023-05-10T05:52:00;12.80;99.90
51855;DHT22;37895;53.240;6.572;2023-05-10T05:54:29;12.80;99.90
51855;DHT22;37895;53.240;6.572;2023-05-10T05:56:58;12.90;99.90
51855;DHT22;37895;53.240;6.572;2023-05-10T05:59:24;12.90;99.90
51855;DHT22;37895;53.240;6.572;2023-05-10T06:01:50;12.90;99.90
51855;DHT22;37895;53.240;6.572;2023-05-10T06:04:18;12.90;99.90
51855;DHT22;37895;53.240;6.572;2023-05-10T06:06:44;12.80;99.90
51855;DHT22;37895;53.240;6.572;2023-05-10T06:09:10;12.90;99.90
51855;DHT22;37895;53.240;6.572;2023-05-10T06:11:36;12.80;99.90
51855;DHT22;37895;53.240;6.572;2023-05-10T06:14:04;12.80;99.90
51855;DHT22;37895;53.240;6.572;2023-05-10T06:16:30;12.80;99.90
51855;DHT22;37895;53.240;6.572;2023-05-10T06:18:56;12.80;99.90
51855;DHT22;37895;53.240;6.572;2023-05-10T06:21:22;12.70;99.90
51855;DHT22;37895;53.240;6.572;2023-05-10T06:23:47;12.70;99.90
51855;DHT22;37895;53.240;6.572;2023-05-10T06:26:13;12.60;99.90
51855;DHT22;37895;53.240;6.572;2023-05-10T06:28:39;12.60;99.90
51855;DHT22;37895;53.240;6.572;2023-05-10T06:31:05;12.70;99.90
51855;DHT22;37895;53.240;6.572;2023-05-10T06:33:32;12.60;99.90
51855;DHT22;37895;53.240;6.572;2023-05-10T06:35:58;12.60;99.90
51855;DHT22;37895;53.240;6.572;2023-05-10T06:38:23;12.60;99.90
51855;DHT22;37895;53.240;6.572;2023-05-10T06:40:49;12.60;99.90
51855;DHT22;37895;53.240;6.572;2023-05-10T06:43:15;12.60;99.90
51855;DHT22;37895;53.240;6.572;2023-05-10T06:45:40;12.70;99.90
51855;DHT22;37895;53.240;6.572;2023-05-10T06:48:06;12.60;99.90
51855;DHT22;37895;53.240;6.572;2023-05-10T06:50:32;12.60;99.90
51855;DHT22;37895;53.240;6.572;2023-05-10T06:52:59;12.50;99.90
51855;DHT22;37895;53.240;6.572;2023-05-10T06:55:25;12.50;99.90
51855;DHT22;37895;53.240;6.572;2023-05-10T06:57:52;12.50;99.90
51855;DHT22;37895;53.240;6.572;2023-05-10T07:00:18;12.50;99.90
51855;DHT22;37895;53.240;6.572;2023-05-10T07:02:44;12.40;99.90
51855;DHT22;37895;53.240;6.572;2023-05-10T07:05:10;12.30;99.90
51855;DHT22;37895;53.240;6.572;2023-05-10T07:07:35;12.30;99.90
51855;DHT22;37895;53.240;6.572;2023-05-10T07:10:01;12.30;99.90
51855;DHT22;37895;53.240;6.572;2023-05-10T07:12:28;12.30;99.90
51855;DHT22;37895;53.240;6.572;2023-05-10T07:14:53;12.30;99.90
51855;DHT22;37895;53.240;6.572;2023-05-10T07:17:19;12.40;99.90
51855;DHT22;37895;53.240;6.572;2023-05-10T07:19:45;12.30;99.90
51855;DHT22;37895;53.240;6.572;2023-05-10T07:22:11;12.40;99.90
51855;DHT22;37895;53.240;6.572;2023-05-10T07:24:37;12.40;99.90
51855;DHT22;37895;53.240;6.572;2023-05-10T07:27:02;12.50;99.90
51855;DHT22;37895;53.240;6.572;2023-05-10T07:29:28;12.50;99.90
51855;DHT22;37895;53.240;6.572;2023-05-10T07:31:54;12.50;99.90
51855;DHT22;37895;53.240;6.572;2023-05-10T07:34:20;12.60;99.90
51855;DHT22;37895;53.240;6.572;2023-05-10T07:36:45;12.60;99.90
51855;DHT22;37895;53.240;6.572;2023-05-10T07:39:11;12.60;99.90
51855;DHT22;37895;53.240;6.572;2023-05-10T07:41:37;12.70;99.90
51855;DHT22;37895;53.240;6.572;2023-05-10T07:44:04;12.80;99.90
51855;DHT22;37895;53.240;6.572;2023-05-10T07:46:30;12.80;99.90
51855;DHT22;37895;53.240;6.572;2023-05-10T07:48:56;12.90;99.90
51855;DHT22;37895;53.240;6.572;2023-05-10T07:51:21;12.90;99.90
51855;DHT22;37895;53.240;6.572;2023-05-10T07:53:47;13.00;99.90
51855;DHT22;37895;53.240;6.572;2023-05-10T07:56:24;13.00;99.90
51855;DHT22;37895;53.240;6.572;2023-05-10T07:58:51;13.00;99.90
51855;DHT22;37895;53.240;6.572;2023-05-10T08:01:17;13.00;99.90
51855;DHT22;37895;53.240;6.572;2023-05-10T08:03:43;13.00;99.90
51855;DHT22;37895;53.240;6.572;2023-05-10T08:06:09;13.00;99.90
51855;DHT22;37895;53.240;6.572;2023-05-10T08:08:34;13.00;99.90
51855;DHT22;37895;53.240;6.572;2023-05-10T08:14:22;13.00;99.90
51855;DHT22;37895;53.240;6.572;2023-05-10T08:16:48;13.00;99.90
51855;DHT22;37895;53.240;6.572;2023-05-10T08:19:13;13.00;99.90
51855;DHT22;37895;53.240;6.572;2023-05-10T08:21:39;13.00;99.90
51855;DHT22;37895;53.240;6.572;2023-05-10T08:24:07;13.00;99.90
51855;DHT22;37895;53.240;6.572;2023-05-10T08:26:33;13.00;99.90
51855;DHT22;37895;53.240;6.572;2023-05-10T08:28:59;13.00;99.90
51855;DHT22;37895;53.240;6.572;2023-05-10T08:31:24;13.00;99.90
51855;DHT22;37895;53.240;6.572;2023-05-10T08:33:50;13.00;99.90
51855;DHT22;37895;53.240;6.572;2023-05-10T08:36:18;13.00;99.90
51855;DHT22;37895;53.240;6.572;2023-05-10T08:38:49;13.10;99.90
51855;DHT22;37895;53.240;6.572;2023-05-10T08:41:15;13.00;99.90
51855;DHT22;37895;53.240;6.572;2023-05-10T08:43:41;13.10;99.90
51855;DHT22;37895;53.240;6.572;2023-05-10T08:46:18;13.00;99.90
51855;DHT22;37895;53.240;6.572;2023-05-10T08:48:48;13.00;99.90
51855;DHT22;37895;53.240;6.572;2023-05-10T08:51:20;13.10;99.90
51855;DHT22;37895;53.240;6.572;2023-05-10T08:53:47;13.10;99.90
51855;DHT22;37895;53.240;6.572;2023-05-10T08:56:13;13.20;99.90
51855;DHT22;37895;53.240;6.572;2023-05-10T08:58:41;13.20;99.90
51855;DHT22;37895;53.240;6.572;2023-05-10T09:01:07;13.30;99.90
51855;DHT22;37895;53.240;6.572;2023-05-10T09:03:35;13.20;99.90
51855;DHT22;37895;53.240;6.572;2023-05-10T09:06:03;13.20;99.90
51855;DHT22;37895;53.240;6.572;2023-05-10T09:08:30;13.20;99.90
51855;DHT22;37895;53.240;6.572;2023-05-10T09:10:56;13.30;99.90
51855;DHT22;37895;53.240;6.572;2023-05-10T09:13:23;13.30;99.90
51855;DHT22;37895;53.240;6.572;2023-05-10T09:15:49;13.30;99.90
51855;DHT22;37895;53.240;6.572;2023-05-10T09:18:15;13.40;99.90
51855;DHT22;37895;53.240;6.572;2023-05-10T09:20:41;13.40;99.90
51855;DHT22;37895;53.240;6.572;2023-05-10T09:23:06;13.40;99.90
51855;DHT22;37895;53.240;6.572;2023-05-10T09:25:32;13.40;99.90
51855;DHT22;37895;53.240;6.572;2023-05-10T09:28:06;13.50;99.90
51855;DHT22;37895;53.240;6.572;2023-05-10T09:30:32;13.70;99.90
51855;DHT22;37895;53.240;6.572;2023-05-10T09:32:59;13.80;99.90
51855;DHT22;37895;53.240;6.572;2023-05-10T09:35:28;13.90;99.90
51855;DHT22;37895;53.240;6.572;2023-05-10T09:37:56;14.00;99.90
51855;DHT22;37895;53.240;6.572;2023-05-10T09:40:26;14.10;99.90
51855;DHT22;37895;53.240;6.572;2023-05-10T09:43:01;14.10;99.90
51855;DHT22;37895;53.240;6.572;2023-05-10T09:45:29;14.20;99.90
51855;DHT22;37895;53.240;6.572;2023-05-10T09:47:56;14.10;99.90
51855;DHT22;37895;53.240;6.572;2023-05-10T09:50:22;14.10;99.90
51855;DHT22;37895;53.240;6.572;2023-05-10T09:52:56;14.10;99.90
51855;DHT22;37895;53.240;6.572;2023-05-10T09:58:01;14.00;99.90
51855;DHT22;37895;53.240;6.572;2023-05-10T10:00:28;14.10;99.90
51855;DHT22;37895;53.240;6.572;2023-05-10T10:03:00;14.10;99.90
51855;DHT22;37895;53.240;6.572;2023-05-10T10:05:33;14.10;99.90
51855;DHT22;37895;53.240;6.572;2023-05-10T10:08:00;14.10;99.90
51855;DHT22;37895;53.240;6.572;2023-05-10T10:10:27;14.20;99.90
51855;DHT22;37895;53.240;6.572;2023-05-10T10:12:53;14.20;99.90
51855;DHT22;37895;53.240;6.572;2023-05-10T10:15:23;14.30;99.90
51855;DHT22;37895;53.240;6.572;2023-05-10T10:17:50;14.40;99.90
51855;DHT22;37895;53.240;6.572;2023-05-10T10:20:16;14.40;99.90
51855;DHT22;37895;53.240;6.572;2023-05-10T10:22:41;14.50;99.90
51855;DHT22;37895;53.240;6.572;2023-05-10T10:25:10;14.60;99.90
51855;DHT22;37895;53.240;6.572;2023-05-10T10:27:45;14.70;99.90
51855;DHT22;37895;53.240;6.572;2023-05-10T10:30:19;14.80;99.90
51855;DHT22;37895;53.240;6.572;2023-05-10T10:35:32;15.00;99.60
51855;DHT22;37895;53.240;6.572;2023-05-10T10:37:58;15.00;99.80
51855;DHT22;37895;53.240;6.572;2023-05-10T10:40:32;15.00;99.50
51855;DHT22;37895;53.240;6.572;2023-05-10T10:43:20;15.10;99.40
51855;DHT22;37895;53.240;6.572;2023-05-10T10:46:09;15.10;99.60
51855;DHT22;37895;53.240;6.572;2023-05-10T10:48:33;15.20;99.30
51855;DHT22;37895;53.240;6.572;2023-05-10T10:50:58;15.30;99.20
51855;DHT22;37895;53.240;6.572;2023-05-10T10:53:26;15.40;98.70
51855;DHT22;37895;53.240;6.572;2023-05-10T10:56:06;15.30;98.70
51855;DHT22;37895;53.240;6.572;2023-05-10T10:58:34;15.30;98.60
51855;DHT22;37895;53.240;6.572;2023-05-10T11:03:36;15.30;98.80
51855;DHT22;37895;53.240;6.572;2023-05-10T11:06:01;15.30;99.00
51855;DHT22;37895;53.240;6.572;2023-05-10T11:08:32;15.30;98.70
51855;DHT22;37895;53.240;6.572;2023-05-10T11:11:02;15.30;98.50
51855;DHT22;37895;53.240;6.572;2023-05-10T11:13:37;15.30;98.80
51855;DHT22;37895;53.240;6.572;2023-05-10T11:16:11;15.40;98.50
51855;DHT22;37895;53.240;6.572;2023-05-10T11:18:37;15.30;99.10
51855;DHT22;37895;53.240;6.572;2023-05-10T11:21:03;15.20;99.30
51855;DHT22;37895;53.240;6.572;2023-05-10T11:26:07;15.40;98.70
51855;DHT22;37895;53.240;6.572;2023-05-10T11:28:47;15.40;98.70
51855;DHT22;37895;53.240;6.572;2023-05-10T11:31:17;15.60;98.00
51855;DHT22;37895;53.240;6.572;2023-05-10T11:33:51;15.70;98.60
51855;DHT22;37895;53.240;6.572;2023-05-10T11:36:19;15.70;97.60
51855;DHT22;37895;53.240;6.572;2023-05-10T11:38:46;15.70;97.60
51855;DHT22;37895;53.240;6.572;2023-05-10T11:41:13;15.70;97.50
51855;DHT22;37895;53.240;6.572;2023-05-10T11:43:39;15.70;97.80
51855;DHT22;37895;53.240;6.572;2023-05-10T11:46:10;15.80;97.60
51855;DHT22;37895;53.240;6.572;2023-05-10T11:48:40;15.80;97.40
51855;DHT22;37895;53.240;6.572;2023-05-10T11:51:09;15.80;97.10
51855;DHT22;37895;53.240;6.572;2023-05-10T11:53:35;15.90;96.50
51855;DHT22;37895;53.240;6.572;2023-05-10T11:56:09;16.00;96.40
51855;DHT22;37895;53.240;6.572;2023-05-10T11:58:35;16.00;96.40
51855;DHT22;37895;53.240;6.572;2023-05-10T12:01:02;16.00;96.50
51855;DHT22;37895;53.240;6.572;2023-05-10T12:03:28;16.00;96.60
51855;DHT22;37895;53.240;6.572;2023-05-10T12:05:55;15.90;96.40
51855;DHT22;37895;53.240;6.572;2023-05-10T12:08:23;15.90;96.60
51855;DHT22;37895;53.240;6.572;2023-05-10T12:10:48;15.80;96.90
51855;DHT22;37895;53.240;6.572;2023-05-10T12:13:14;15.70;96.90
51855;DHT22;37895;53.240;6.572;2023-05-10T12:15:40;15.70;96.60
51855;DHT22;37895;53.240;6.572;2023-05-10T12:18:14;15.50;96.90
51855;DHT22;37895;53.240;6.572;2023-05-10T12:20:40;15.50;97.10
51855;DHT22;37895;53.240;6.572;2023-05-10T12:23:08;15.50;97.10
51855;DHT22;37895;53.240;6.572;2023-05-10T12:25:36;15.40;97.00
51855;DHT22;37895;53.240;6.572;2023-05-10T12:28:09;15.40;97.30
51855;DHT22;37895;53.240;6.572;2023-05-10T12:30:36;15.40;97.50
51855;DHT22;37895;53.240;6.572;2023-05-10T12:33:09;15.30;97.70
51855;DHT22;37895;53.240;6.572;2023-05-10T12:35:51;15.20;98.20
51855;DHT22;37895;53.240;6.572;2023-05-10T12:38:35;15.20;98.20
51855;DHT22;37895;53.240;6.572;2023-05-10T12:41:04;15.20;98.50
51855;DHT22;37895;53.240;6.572;2023-05-10T12:43:31;15.00;98.70
51855;DHT22;37895;53.240;6.572;2023-05-10T12:45:57;14.90;99.30
51855;DHT22;37895;53.240;6.572;2023-05-10T12:48:23;14.90;99.50
51855;DHT22;37895;53.240;6.572;2023-05-10T12:50:49;14.90;98.90
51855;DHT22;37895;53.240;6.572;2023-05-10T12:53:15;14.90;99.20
51855;DHT22;37895;53.240;6.572;2023-05-10T12:55:41;15.00;99.20
51855;DHT22;37895;53.240;6.572;2023-05-10T12:58:07;15.10;99.60
51855;DHT22;37895;53.240;6.572;2023-05-10T13:00:33;15.20;99.40
51855;DHT22;37895;53.240;6.572;2023-05-10T13:02:59;15.30;99.50
51855;DHT22;37895;53.240;6.572;2023-05-10T13:05:24;15.40;99.40
51855;DHT22;37895;53.240;6.572;2023-05-10T13:07:50;15.40;98.90
51855;DHT22;37895;53.240;6.572;2023-05-10T13:10:16;15.40;98.50
51855;DHT22;37895;53.240;6.572;2023-05-10T13:12:42;15.50;98.40
51855;DHT22;37895;53.240;6.572;2023-05-10T13:15:07;15.60;97.70
51855;DHT22;37895;53.240;6.572;2023-05-10T13:17:33;15.60;97.50
51855;DHT22;37895;53.240;6.572;2023-05-10T13:19:59;15.50;98.00
51855;DHT22;37895;53.240;6.572;2023-05-10T13:22:25;15.50;98.10
51855;DHT22;37895;53.240;6.572;2023-05-10T13:24:50;15.60;98.30
51855;DHT22;37895;53.240;6.572;2023-05-10T13:27:16;15.70;98.50
51855;DHT22;37895;53.240;6.572;2023-05-10T13:29:42;15.80;98.20
51855;DHT22;37895;53.240;6.572;2023-05-10T13:32:07;15.90;97.80
51855;DHT22;37895;53.240;6.572;2023-05-10T13:34:33;15.90;97.30
51855;DHT22;37895;53.240;6.572;2023-05-10T13:37:01;16.00;96.60
51855;DHT22;37895;53.240;6.572;2023-05-10T13:39:26;16.10;97.00
51855;DHT22;37895;53.240;6.572;2023-05-10T13:41:52;16.20;96.00
51855;DHT22;37895;53.240;6.572;2023-05-10T13:44:19;16.30;96.20
51855;DHT22;37895;53.240;6.572;2023-05-10T13:46:45;16.30;95.40
51855;DHT22;37895;53.240;6.572;2023-05-10T13:49:11;16.20;95.10
51855;DHT22;37895;53.240;6.572;2023-05-10T13:51:37;16.00;94.80
51855;DHT22;37895;53.240;6.572;2023-05-10T13:54:03;16.10;95.40
51855;DHT22;37895;53.240;6.572;2023-05-10T13:56:28;15.90;95.50
51855;DHT22;37895;53.240;6.572;2023-05-10T13:58:55;15.90;95.80
51855;DHT22;37895;53.240;6.572;2023-05-10T14:01:22;16.00;96.10
51855;DHT22;37895;53.240;6.572;2023-05-10T14:03:47;16.00;96.20
51855;DHT22;37895;53.240;6.572;2023-05-10T14:06:13;16.00;96.00
51855;DHT22;37895;53.240;6.572;2023-05-10T14:08:39;16.00;95.90
51855;DHT22;37895;53.240;6.572;2023-05-10T14:11:05;15.90;96.20
51855;DHT22;37895;53.240;6.572;2023-05-10T14:13:31;15.90;96.20
51855;DHT22;37895;53.240;6.572;2023-05-10T14:15:56;15.80;96.10
51855;DHT22;37895;53.240;6.572;2023-05-10T14:18:22;15.70;96.00
51855;DHT22;37895;53.240;6.572;2023-05-10T14:20:48;15.70;96.00
51855;DHT22;37895;53.240;6.572;2023-05-10T14:23:14;15.60;96.00
51855;DHT22;37895;53.240;6.572;2023-05-10T14:25:40;15.60;96.20
51855;DHT22;37895;53.240;6.572;2023-05-10T14:28:06;15.60;96.20
51855;DHT22;37895;53.240;6.572;2023-05-10T14:30:32;15.60;96.10
51855;DHT22;37895;53.240;6.572;2023-05-10T14:33:01;15.70;96.20
51855;DHT22;37895;53.240;6.572;2023-05-10T14:35:28;15.80;95.90
51855;DHT22;37895;53.240;6.572;2023-05-10T14:37:56;16.00;95.70
51855;DHT22;37895;53.240;6.572;2023-05-10T14:40:21;16.20;95.90
51855;DHT22;37895;53.240;6.572;2023-05-10T14:45:52;16.70;94.90
51855;DHT22;37895;53.240;6.572;2023-05-10T14:48:18;16.70;95.00
51855;DHT22;37895;53.240;6.572;2023-05-10T14:50:44;16.70;94.90
51855;DHT22;37895;53.240;6.572;2023-05-10T14:53:10;16.80;94.70
51855;DHT22;37895;53.240;6.572;2023-05-10T14:55:36;16.80;94.90
51855;DHT22;37895;53.240;6.572;2023-05-10T14:58:03;16.70;94.60
51855;DHT22;37895;53.240;6.572;2023-05-10T15:00:29;16.70;95.00
51855;DHT22;37895;53.240;6.572;2023-05-10T15:02:55;16.80;95.20
51855;DHT22;37895;53.240;6.572;2023-05-10T15:05:21;16.80;94.70
51855;DHT22;37895;53.240;6.572;2023-05-10T15:07:47;16.80;95.30
51855;DHT22;37895;53.240;6.572;2023-05-10T15:10:17;16.90;95.50
51855;DHT22;37895;53.240;6.572;2023-05-10T15:12:43;17.00;93.90
51855;DHT22;37895;53.240;6.572;2023-05-10T15:15:08;16.90;94.20
51855;DHT22;37895;53.240;6.572;2023-05-10T15:17:34;17.00;94.50
51855;DHT22;37895;53.240;6.572;2023-05-10T15:20:00;17.10;94.20
51855;DHT22;37895;53.240;6.572;2023-05-10T15:22:28;16.90;94.30
51855;DHT22;37895;53.240;6.572;2023-05-10T15:24:54;17.00;94.60
51855;DHT22;37895;53.240;6.572;2023-05-10T15:27:20;17.00;95.00
51855;DHT22;37895;53.240;6.572;2023-05-10T15:29:45;17.00;94.80
51855;DHT22;37895;53.240;6.572;2023-05-10T15:32:11;17.00;95.20
51855;DHT22;37895;53.240;6.572;2023-05-10T15:34:37;16.90;95.00
51855;DHT22;37895;53.240;6.572;2023-05-10T15:37:03;16.80;95.60
51855;DHT22;37895;53.240;6.572;2023-05-10T15:39:28;16.80;95.70
51855;DHT22;37895;53.240;6.572;2023-05-10T15:41:54;16.70;95.70
51855;DHT22;37895;53.240;6.572;2023-05-10T15:44:19;16.50;95.70
51855;DHT22;37895;53.240;6.572;2023-05-10T15:46:45;16.40;95.70
51855;DHT22;37895;53.240;6.572;2023-05-10T15:49:11;16.30;95.80
51855;DHT22;37895;53.240;6.572;2023-05-10T15:51:36;16.10;95.90
51855;DHT22;37895;53.240;6.572;2023-05-10T15:54:02;15.90;96.30
51855;DHT22;37895;53.240;6.572;2023-05-10T15:56:28;15.80;96.50
51855;DHT22;37895;53.240;6.572;2023-05-10T15:58:54;15.60;96.60
51855;DHT22;37895;53.240;6.572;2023-05-10T16:01:20;15.50;96.80
51855;DHT22;37895;53.240;6.572;2023-05-10T16:03:45;15.50;96.80
51855;DHT22;37895;53.240;6.572;2023-05-10T16:06:11;15.40;96.50